Time;durP1;ratioP1;P1;durP2;ratioP2;P2;SDS_P1;SDS_P2;PMS_P1;PMS_P2;Temp;Humidity;BMP_temperature;BMP_pressure;BME280_temperature;BME280_humidity;BME280_pressure;Samples;Min_cycle;Max_cycle;Signal;HPM_P1;HPM_P2
2023/02/24 07:59:36;;;;;;;27.70;14.60;;;;;;;5.63;67.42;98180.21;101757;1305;636176;-75
2023/02/24 08:02:06;;;;;;;29.70;12.40;;;;;;;5.60;67.52;98176.36;104125;1269;95947;-76
2023/02/24 08:04:38;;;;;;;27.00;13.50;;;;;;;5.59;67.13;98170.10;104289;1266;94412;-81
2023/02/24 08:07:13;;;;;;;24.20;11.90;;;;;;;5.58;67.64;98163.13;104126;1269;106907;-80
2023/02/24 08:12:16;;;;;;;27.50;11.40;;;;;;;5.53;68.04;98151.48;104003;1270;150594;-76
2023/02/24 08:14:50;;;;;;;25.20;12.20;;;;;;;5.49;68.24;98151.21;104107;1267;95176;-76
2023/02/24 08:17:20;;;;;;;23.80;12.30;;;;;;;5.47;67.93;98143.46;104138;1264;94328;-74
2023/02/24 08:20:20;;;;;;;27.00;12.90;;;;;;;5.48;67.64;98140.22;104711;1260;107237;-75
2023/02/24 08:22:43;;;;;;;27.10;12.90;;;;;;;5.52;68.40;98132.74;104707;1261;102745;-75
2023/02/24 08:25:17;;;;;;;24.50;12.30;;;;;;;5.55;67.92;98136.42;104695;1271;105640;-78
2023/02/24 08:27:58;;;;;;;24.80;11.40;;;;;;;5.59;68.07;98126.65;104544;1260;95275;-77
2023/02/24 08:30:43;;;;;;;23.70;11.70;;;;;;;5.63;67.90;98129.04;104474;1273;95775;-80
2023/02/24 08:33:19;;;;;;;26.00;12.00;;;;;;;5.65;67.98;98126.95;104888;1272;108722;-80
2023/02/24 08:35:59;;;;;;;26.80;12.40;;;;;;;5.67;68.13;98128.40;105149;1275;101519;-76
2023/02/24 08:38:40;;;;;;;24.60;11.40;;;;;;;5.67;68.01;98126.80;104887;1256;107933;-76
2023/02/24 08:41:19;;;;;;;27.20;12.90;;;;;;;5.68;68.22;98117.44;104860;1256;95412;-76
2023/02/24 08:43:48;;;;;;;25.90;12.90;;;;;;;5.68;67.90;98121.47;105058;1252;96686;-80
2023/02/24 08:46:24;;;;;;;29.20;13.60;;;;;;;5.71;68.11;98117.79;105269;1258;108542;-77
2023/02/24 08:48:59;;;;;;;29.20;13.00;;;;;;;5.75;68.34;98102.15;104866;1257;102422;-74
2023/02/24 08:51:42;;;;;;;29.60;13.80;;;;;;;5.78;68.20;98107.28;105024;1257;107706;-75
2023/02/24 08:54:14;;;;;;;26.00;13.40;;;;;;;5.79;67.97;98106.66;105124;1257;96249;-76
2023/02/24 08:56:48;;;;;;;26.60;13.20;;;;;;;5.79;68.14;98108.21;105051;1257;95668;-72
2023/02/24 09:02:17;;;;;;;32.10;14.60;;;;;;;5.81;68.27;98097.35;104987;1266;102946;-76
2023/02/24 09:04:51;;;;;;;36.40;18.50;;;;;;;5.88;68.56;98093.76;105117;1268;107680;-77
2023/02/24 09:07:25;;;;;;;32.50;15.90;;;;;;;5.96;68.21;98089.14;104912;1269;96171;-73
2023/02/24 09:09:55;;;;;;;29.80;14.40;;;;;;;6.07;68.41;98079.09;104982;1256;96923;-75
2023/02/24 09:12:27;;;;;;;27.80;14.20;;;;;;;6.15;68.45;98070.64;105072;1253;108885;-80
2023/02/24 09:15:06;;;;;;;24.40;12.10;;;;;;;6.21;68.22;98070.38;104825;1272;102233;-78
2023/02/24 09:23:02;;;;;;;27.40;14.90;;;;;;;6.37;68.44;98064.10;105078;1254;95736;-73
2023/02/24 09:25:48;;;;;;;24.30;12.70;;;;;;;6.40;68.49;98060.04;105073;1256;106810;-73
2023/02/24 09:28:19;;;;;;;27.80;13.80;;;;;;;6.44;68.25;98051.13;105035;1257;102777;-74
2023/02/24 09:30:57;;;;;;;25.40;13.00;;;;;;;6.51;68.40;98049.61;105004;1264;107600;-75
2023/02/24 09:33:38;;;;;;;28.70;14.80;;;;;;;6.60;68.47;98044.17;104862;1256;95229;-78
2023/02/24 09:36:11;;;;;;;25.40;12.70;;;;;;;6.68;68.41;98046.95;104941;1254;95745;-75
2023/02/24 09:41:55;;;;;;;24.60;12.50;;;;;;;6.80;68.24;98035.13;105101;1256;102256;-74
2023/02/24 09:44:33;;;;;;;25.50;13.10;;;;;;;6.87;68.35;98042.96;104955;1257;107898;-77
2023/02/24 09:50:29;;;;;;;25.90;13.40;;;;;;;6.91;68.28;98035.41;105126;1256;95220;-76
2023/02/24 09:53:17;;;;;;;28.30;13.40;;;;;;;6.94;68.24;98029.72;105105;1252;109099;-79
2023/02/24 09:56:02;;;;;;;23.70;11.90;;;;;;;6.91;68.11;98026.58;105057;1256;102868;-79
2023/02/24 09:59:09;;;;;;;24.60;13.10;;;;;;;6.87;68.25;98024.10;104882;1256;107050;-79
2023/02/24 10:01:45;;;;;;;26.50;13.30;;;;;;;6.84;68.16;98020.60;105037;1257;96185;-79
2023/02/24 10:04:34;;;;;;;27.70;14.30;;;;;;;6.80;68.10;98018.41;105012;1257;95778;-81
2023/02/24 10:07:11;;;;;;;28.40;13.80;;;;;;;6.78;68.27;98016.41;104986;1256;108616;-79
2023/02/24 10:09:45;;;;;;;24.90;13.70;;;;;;;6.78;68.29;98013.24;105027;1256;102557;-78
2023/02/24 10:12:22;;;;;;;24.90;13.30;;;;;;;6.78;68.42;98010.46;104857;1270;107101;-79
2023/02/24 10:17:55;;;;;;;25.00;13.80;;;;;;;6.76;68.28;97999.71;104731;1258;96137;-77
2023/02/24 10:20:38;;;;;;;26.40;13.70;;;;;;;6.74;68.39;97999.44;105080;1254;109103;-77
2023/02/24 10:23:35;;;;;;;28.60;14.60;;;;;;;6.78;68.43;97992.32;104959;1261;102389;-77
2023/02/24 10:26:51;;;;;;;27.20;14.10;;;;;;;6.81;68.14;97985.19;105143;1257;107382;-76
2023/02/24 10:29:34;;;;;;;25.80;13.90;;;;;;;6.81;68.47;97979.93;104851;1270;95252;-73
2023/02/24 10:32:22;;;;;;;26.50;14.80;;;;;;;6.82;68.50;97979.80;105146;1253;95688;-75
2023/02/24 10:34:52;;;;;;;26.00;14.80;;;;;;;6.87;68.34;97984.25;104908;1257;108293;-73
2023/02/24 10:37:22;;;;;;;28.70;15.50;;;;;;;6.89;68.26;97979.34;105130;1264;102777;-75
2023/02/24 10:40:08;;;;;;;30.20;15.50;;;;;;;6.91;68.40;97974.46;104929;1254;105751;-74
2023/02/24 10:42:47;;;;;;;26.60;14.00;;;;;;;6.91;68.57;97964.56;104914;1253;95269;-75
2023/02/24 10:45:23;;;;;;;27.10;14.40;;;;;;;6.90;68.35;97961.27;104826;1253;95742;-71
2023/02/24 10:47:55;;;;;;;27.00;15.00;;;;;;;6.90;68.58;97953.86;105087;1253;107269;-75
2023/02/24 10:50:32;;;;;;;27.60;14.60;;;;;;;6.89;68.54;97944.09;104965;1257;102838;-72
2023/02/24 10:53:33;;;;;;;29.90;16.30;;;;;;;6.87;68.51;97940.73;104949;1256;107599;-77
2023/02/24 10:56:25;;;;;;;26.60;15.60;;;;;;;6.80;68.55;97938.02;105079;1256;95313;-74
2023/02/24 11:01:58;;;;;;;29.30;15.30;;;;;;;6.72;68.90;97923.17;105070;1253;109254;-75
2023/02/24 11:04:43;;;;;;;30.60;16.80;;;;;;;6.68;68.75;97920.42;104840;1257;102027;-76
2023/02/24 11:07:23;;;;;;;26.60;16.30;;;;;;;6.67;68.87;97915.10;104795;1256;107482;-73
2023/02/24 11:10:12;;;;;;;29.40;16.20;;;;;;;6.67;68.74;97911.90;104769;1257;95317;-74
2023/02/24 11:18:32;;;;;;;28.80;16.90;;;;;;;6.63;68.63;97893.02;105055;1254;102407;-74
2023/02/24 11:21:06;;;;;;;28.60;17.10;;;;;;;6.63;68.98;97887.86;105081;1257;107662;-75
2023/02/24 11:23:45;;;;;;;29.80;17.40;;;;;;;6.65;69.02;97885.77;105026;1256;95252;-75
2023/02/24 11:26:25;;;;;;;29.60;17.40;;;;;;;6.71;69.06;97880.44;104927;1253;95736;-74
2023/02/24 11:29:12;;;;;;;32.70;19.30;;;;;;;6.78;69.04;97876.33;104761;1257;107689;-75
2023/02/24 11:32:07;;;;;;;33.30;18.80;;;;;;;6.91;69.15;97867.11;104895;1258;103050;-75
2023/02/24 11:34:48;;;;;;;34.10;18.40;;;;;;;7.09;68.84;97862.16;104941;1254;107607;-75
2023/02/24 11:37:37;;;;;;;32.30;19.10;;;;;;;7.25;69.13;97854.96;104927;1254;95339;-74
2023/02/24 11:40:28;;;;;;;39.30;21.60;;;;;;;7.36;68.96;97848.30;104962;1256;95749;-74
2023/02/24 11:43:17;;;;;;;34.80;20.70;;;;;;;7.40;68.94;97848.48;104884;1267;108320;-72
2023/02/24 11:45:53;;;;;;;33.60;18.80;;;;;;;7.42;68.89;97843.53;107507;1256;101606;-73
2023/02/24 11:48:31;;;;;;;31.70;18.90;;;;;;;7.47;68.81;97836.84;106737;1253;107594;-73
2023/02/24 11:51:02;;;;;;;30.70;19.00;;;;;;;7.50;68.83;97840.86;104913;1256;95342;-72
2023/02/24 11:53:43;;;;;;;28.70;16.40;;;;;;;7.56;68.72;97833.96;105144;1256;97102;-73
2023/02/24 11:56:19;;;;;;;29.00;18.20;;;;;;;7.62;68.91;97827.91;105116;1256;109026;-73
2023/02/24 11:59:05;;;;;;;30.50;18.00;;;;;;;7.66;68.76;97827.58;105031;1253;102238;-80
2023/02/24 12:01:55;;;;;;;32.40;17.70;;;;;;;7.76;68.79;97826.05;104914;1257;107726;-73
2023/02/24 12:04:32;;;;;;;32.70;18.50;;;;;;;7.94;68.87;97820.42;104828;1269;95250;-75
2023/02/24 12:07:20;;;;;;;31.80;19.70;;;;;;;8.02;68.72;97811.90;105067;1253;95774;-75
2023/02/24 12:09:57;;;;;;;31.90;18.00;;;;;;;7.98;68.60;97814.37;104827;1254;108009;-73
2023/02/24 12:12:49;;;;;;;30.40;17.80;;;;;;;7.94;68.68;97808.02;104848;1258;103256;-75
2023/02/24 12:15:40;;;;;;;30.30;18.00;;;;;;;7.95;68.86;97805.10;104914;1264;107478;-79
2023/02/24 12:18:24;;;;;;;31.50;18.70;;;;;;;8.01;68.77;97797.20;104854;1253;95310;-74
2023/02/24 12:21:06;;;;;;;;;;;;;;;8.12;68.68;97793.64;104835;1257;95240;-78
2023/02/24 12:23:41;;;;;;;29.70;18.40;;;;;;;8.20;68.76;97796.70;105079;1257;109465;-77
2023/02/24 12:26:30;;;;;;;32.70;18.40;;;;;;;8.21;68.83;97793.09;105036;1257;101827;-76
2023/02/24 12:29:41;;;;;;;32.70;20.00;;;;;;;8.10;68.64;97789.11;104844;1257;107504;-74
2023/02/24 12:32:29;;;;;;;32.40;19.50;;;;;;;7.91;68.51;97784.84;105059;1256;97918;-74
2023/02/24 12:35:21;;;;;;;32.70;18.40;;;;;;;7.81;68.59;97789.84;108852;1253;95205;-73
2023/02/24 12:38:02;;;;;;;34.30;19.40;;;;;;;7.74;68.58;97785.44;108879;1253;108534;-77
2023/02/24 12:40:46;;;;;;;34.40;20.00;;;;;;;7.68;68.60;97782.10;108893;1252;102241;-73
2023/02/24 12:43:34;;;;;;;31.00;18.40;;;;;;;7.63;68.56;97779.12;108895;1253;105481;-73
2023/02/24 12:46:03;;;;;;;31.60;18.50;;;;;;;7.60;68.55;97769.82;108843;1253;94339;-73
2023/02/24 12:49:04;;;;;;;29.90;18.30;;;;;;;7.59;68.54;97769.34;108824;1254;94281;-74
2023/02/24 12:51:50;;;;;;;31.30;18.30;;;;;;;7.56;68.59;97760.62;108860;1253;109881;-83
2023/02/24 12:54:26;;;;;;;35.00;20.70;;;;;;;7.58;68.50;97765.03;108860;1252;102195;-82
2023/02/24 12:57:18;;;;;;;37.30;23.40;;;;;;;7.59;68.54;97758.44;108856;1253;107220;-82
2023/02/24 12:59:48;;;;;;;36.80;22.00;;;;;;;7.59;68.55;97755.56;108859;1252;94259;-86
2023/02/24 13:02:30;;;;;;;39.80;24.80;;;;;;;7.64;68.57;97755.42;108895;1253;94289;-72
2023/02/24 13:05:12;;;;;;;34.80;21.20;;;;;;;7.70;68.50;97751.20;108831;1253;109880;-75
2023/02/24 13:08:04;;;;;;;36.40;21.70;;;;;;;7.74;68.45;97747.88;108855;1252;102935;-76
2023/02/24 13:10:48;;;;;;;36.40;20.80;;;;;;;7.85;68.43;97745.06;108845;1253;107384;-75
2023/02/24 13:13:32;;;;;;;40.00;23.90;;;;;;;7.92;68.52;97745.13;108874;1253;94206;-76
2023/02/24 13:16:00;;;;;;;38.80;21.60;;;;;;;7.99;68.51;97743.56;108833;1253;94229;-76
2023/02/24 13:18:34;;;;;;;33.60;19.80;;;;;;;7.97;68.41;97740.70;108877;1252;109993;-77
2023/02/24 13:21:08;;;;;;;32.50;19.20;;;;;;;7.93;68.42;97743.35;108823;1252;102197;-78
2023/02/24 13:23:40;;;;;;;32.40;18.90;;;;;;;7.90;68.41;97741.08;108848;1254;107638;-74
2023/02/24 13:26:09;;;;;;;33.60;19.50;;;;;;;7.86;68.39;97741.08;108843;1252;94658;-80
2023/02/24 13:28:37;;;;;;;34.60;21.40;;;;;;;7.81;68.39;97740.23;108740;1253;94306;-80
2023/02/24 13:31:09;;;;;;;32.50;19.10;;;;;;;7.74;68.37;97737.09;108821;1254;109478;-81
2023/02/24 13:33:42;;;;;;;34.00;21.00;;;;;;;7.67;68.32;97736.61;108853;1253;102261;-72
2023/02/24 13:36:16;;;;;;;34.40;20.70;;;;;;;7.62;68.48;97732.96;108866;1252;107717;-73
2023/02/24 13:38:46;;;;;;;33.10;17.70;;;;;;;7.60;68.42;97729.80;108876;1252;94244;-73
2023/02/24 13:41:26;;;;;;;32.70;21.00;;;;;;;7.58;68.39;97730.13;108887;1252;94329;-73
2023/02/24 13:44:00;;;;;;;34.80;21.20;;;;;;;7.57;68.39;97734.75;108893;1253;108377;-71
2023/02/24 13:47:19;;;;;;;33.10;20.00;;;;;;;7.59;68.34;97729.52;108869;1253;101870;-73
2023/02/24 13:49:59;;;;;;;34.20;19.30;;;;;;;7.61;68.53;97722.08;108637;1252;107677;-73
2023/02/24 13:52:36;;;;;;;35.40;20.40;;;;;;;7.70;68.57;97722.30;108881;1252;94221;-73
2023/02/24 13:55:38;;;;;;;33.40;20.00;;;;;;;7.78;68.56;97719.69;108818;1253;94318;-72
2023/02/24 13:58:35;;;;;;;32.60;19.90;;;;;;;7.78;68.34;97723.39;108580;1254;109494;-75
2023/02/24 14:01:12;;;;;;;31.60;20.70;;;;;;;7.77;68.34;97718.50;108618;1252;101879;-75
2023/02/24 14:03:45;;;;;;;31.40;19.10;;;;;;;7.75;68.43;97718.46;108844;1254;107590;-74
2023/02/24 14:06:25;;;;;;;35.90;22.00;;;;;;;7.74;68.35;97715.06;108841;1252;94316;-74
2023/02/24 14:09:00;;;;;;;33.30;20.90;;;;;;;7.72;68.38;97717.11;108868;1252;94244;-75
2023/02/24 14:11:33;;;;;;;33.70;19.50;;;;;;;7.72;68.39;97717.66;108867;1254;108662;-75
2023/02/24 14:14:02;;;;;;;34.00;19.20;;;;;;;7.72;68.29;97714.30;108869;1252;102023;-75
2023/02/24 14:16:40;;;;;;;32.10;19.00;;;;;;;7.70;68.41;97704.98;108826;1252;107100;-76
2023/02/24 14:19:15;;;;;;;33.90;19.10;;;;;;;7.70;68.23;97701.60;108832;1252;94770;-76
2023/02/24 14:22:01;;;;;;;34.60;20.80;;;;;;;7.71;68.38;97698.85;108743;1254;94227;-74
2023/02/24 14:24:28;;;;;;;32.50;19.70;;;;;;;7.75;68.36;97696.59;108856;1254;109603;-75
2023/02/24 14:26:58;;;;;;;33.60;20.90;;;;;;;7.83;68.38;97689.30;108846;1253;101986;-76
2023/02/24 14:29:30;;;;;;;36.70;21.20;;;;;;;7.89;68.28;97688.73;108767;1256;107879;-75
2023/02/24 14:31:59;;;;;;;34.80;21.00;;;;;;;7.82;68.10;97682.13;108830;1252;94348;-71
2023/02/24 14:34:30;;;;;;;34.80;21.10;;;;;;;7.68;67.90;97678.34;108652;1254;94347;-76
2023/02/24 14:37:02;;;;;;;33.50;20.80;;;;;;;7.52;68.06;97682.10;108830;1252;109555;-76
2023/02/24 14:39:33;;;;;;;36.90;22.70;;;;;;;7.37;68.01;97679.22;108828;1256;102249;-76
2023/02/24 14:42:11;;;;;;;34.10;20.70;;;;;;;7.25;67.99;97687.62;108815;1253;105912;-75
2023/02/24 14:44:48;;;;;;;38.80;23.10;;;;;;;7.19;68.18;97689.55;108808;1253;94217;-76
2023/02/24 14:47:19;;;;;;;38.50;22.40;;;;;;;7.16;68.16;97685.34;108876;1251;94699;-77
2023/02/24 14:50:00;;;;;;;35.60;21.20;;;;;;;7.12;68.17;97681.93;108926;1251;109873;-77
2023/02/24 14:52:38;;;;;;;40.40;23.90;;;;;;;7.10;68.34;97678.23;108824;1252;101847;-77
2023/02/24 14:55:17;;;;;;;35.90;22.30;;;;;;;7.09;68.15;97670.23;108836;1254;107200;-75
2023/02/24 14:57:56;;;;;;;37.70;23.30;;;;;;;7.08;68.32;97669.39;108755;1253;94291;-77
2023/02/24 15:00:34;;;;;;;39.40;24.70;;;;;;;7.07;68.22;97659.79;108854;1252;94244;-80
2023/02/24 15:03:15;;;;;;;36.90;21.20;;;;;;;7.04;68.16;97663.05;108868;1252;109888;-77
2023/02/24 15:05:47;;;;;;;42.80;24.60;;;;;;;6.97;68.32;97654.06;108864;1253;101890;-76
2023/02/24 15:08:40;;;;;;;37.60;23.70;;;;;;;6.92;68.31;97659.80;108778;1251;107639;-73
2023/02/24 15:11:17;;;;;;;40.20;25.40;;;;;;;6.87;68.27;97660.38;108881;1252;94550;-74
2023/02/24 15:13:51;;;;;;;43.60;25.40;;;;;;;6.82;68.40;97656.11;108895;1254;94649;-76
2023/02/24 15:16:28;;;;;;;45.20;28.40;;;;;;;6.82;68.34;97652.48;108819;1253;109898;-76
2023/02/24 15:18:58;;;;;;;44.00;27.20;;;;;;;6.81;68.39;97645.80;108809;1256;101859;-74
2023/02/24 15:21:37;;;;;;;45.80;27.60;;;;;;;6.78;68.25;97638.84;108851;1251;107276;-76
2023/02/24 15:24:26;;;;;;;43.00;27.00;;;;;;;6.74;68.30;97636.19;108894;1251;94278;-76
2023/02/24 15:27:16;;;;;;;43.10;26.60;;;;;;;6.67;68.39;97637.23;108894;1250;94275;-75
2023/02/24 15:29:57;;;;;;;44.50;28.10;;;;;;;6.62;68.23;97633.05;108835;1251;109936;-75
2023/02/24 15:32:27;;;;;;;40.80;24.60;;;;;;;6.60;68.39;97630.80;108856;1251;102095;-75
2023/02/24 15:34:56;;;;;;;42.90;26.10;;;;;;;6.57;68.47;97623.76;108771;1251;106488;-74
2023/02/24 15:37:43;;;;;;;44.70;27.90;;;;;;;6.55;68.46;97622.54;108773;1251;94521;-74
2023/02/24 15:40:19;;;;;;;43.70;28.10;;;;;;;6.56;68.61;97612.23;108833;1252;94453;-75
2023/02/24 15:42:54;;;;;;;45.00;27.90;;;;;;;6.54;68.69;97615.86;108854;1253;111112;-75
2023/02/24 15:45:32;;;;;;;46.60;28.00;;;;;;;6.49;68.40;97612.27;108895;1253;101934;-75
2023/02/24 15:48:03;;;;;;;49.90;32.00;;;;;;;6.42;68.71;97614.59;108779;1252;107620;-74
2023/02/24 15:50:31;;;;;;;44.40;29.40;;;;;;;6.35;68.44;97618.47;108764;1251;94220;-74
2023/02/24 15:53:03;;;;;;;50.60;30.60;;;;;;;6.26;68.52;97615.45;108827;1252;94376;-73
2023/02/24 15:55:31;;;;;;;47.60;30.10;;;;;;;6.13;68.42;97609.93;108784;1252;110380;-75
2023/02/24 15:58:02;;;;;;;50.50;29.30;;;;;;;6.00;68.53;97606.34;108743;1251;102216;-74
2023/02/24 16:00:31;;;;;;;58.90;34.10;;;;;;;5.87;68.44;97604.73;108710;1253;107632;-73
2023/02/24 16:02:59;;;;;;;62.20;33.70;;;;;;;5.76;68.53;97600.96;108730;1254;94223;-74
2023/02/24 16:05:26;;;;;;;56.70;32.20;;;;;;;5.66;68.61;97597.33;108779;1252;94563;-75
2023/02/24 16:07:54;;;;;;;69.60;38.10;;;;;;;5.57;68.83;97596.41;108767;1252;110030;-73
2023/02/24 16:10:25;;;;;;;61.50;34.40;;;;;;;5.48;68.79;97588.67;108764;1252;102436;-74
2023/02/24 16:12:59;;;;;;;68.20;37.40;;;;;;;5.41;68.89;97584.43;108804;1253;107707;-75
2023/02/24 16:15:29;;;;;;;;;;;;;;;5.34;68.75;97580.89;108889;1252;94285;-75
2023/02/24 16:18:01;;;;;;;62.30;34.00;;;;;;;5.28;68.84;97582.08;108933;1254;94305;-75
2023/02/24 16:20:30;;;;;;;58.80;31.10;;;;;;;5.25;69.01;97575.79;108940;1251;109453;-75
2023/02/24 16:23:01;;;;;;;56.30;33.10;;;;;;;5.24;69.01;97575.86;108892;1254;102254;-75
2023/02/24 16:25:35;;;;;;;56.70;32.10;;;;;;;5.21;69.04;97570.73;108910;1254;107646;-75
2023/02/24 16:28:02;;;;;;;;;;;;;;;5.18;68.91;97560.42;108878;1252;94248;-75
2023/02/24 16:30:30;;;;;;;68.90;36.20;;;;;;;5.15;69.17;97562.92;108922;1254;94254;-75
2023/02/24 16:33:00;;;;;;;63.50;34.20;;;;;;;5.16;69.65;97561.67;108923;1253;110611;-75
2023/02/24 16:35:28;;;;;;;73.20;40.00;;;;;;;5.16;69.65;97562.90;108863;1251;102212;-75
2023/02/24 16:37:56;;;;;;;62.40;35.10;;;;;;;5.12;69.36;97563.69;108939;1253;107603;-75
2023/02/24 16:40:29;;;;;;;67.20;39.70;;;;;;;5.09;69.34;97558.48;108933;1251;94695;-74
2023/02/24 16:42:57;;;;;;;60.90;35.50;;;;;;;5.06;69.65;97555.69;108689;1254;94337;-75
2023/02/24 16:45:28;;;;;;;55.80;30.40;;;;;;;5.05;69.45;97561.44;108936;1253;109881;-75
2023/02/24 16:47:59;;;;;;;57.30;33.00;;;;;;;5.04;69.56;97569.23;108867;1251;101849;-73
2023/02/24 16:50:39;;;;;;;57.90;29.60;;;;;;;5.02;69.62;97562.00;108931;1250;107696;-76
2023/02/24 16:53:14;;;;;;;59.00;33.00;;;;;;;4.99;69.77;97558.87;108807;1251;94243;-76
2023/02/24 16:55:42;;;;;;;74.70;41.00;;;;;;;4.96;69.52;97552.94;108954;1251;94309;-76
2023/02/24 16:58:11;;;;;;;61.60;33.30;;;;;;;4.94;70.17;97560.81;108925;1254;109896;-75
2023/02/24 17:00:40;;;;;;;63.90;36.10;;;;;;;4.92;69.98;97560.75;108921;1251;101884;-74
2023/02/24 17:03:32;;;;;;;66.80;34.90;;;;;;;4.91;69.75;97559.58;108860;1254;107657;-75
2023/02/24 17:06:00;;;;;;;62.40;34.60;;;;;;;4.92;70.26;97544.60;108882;1251;94311;-76
2023/02/24 17:08:28;;;;;;;54.70;30.40;;;;;;;4.96;70.17;97548.04;108947;1251;94781;-75
2023/02/24 17:10:56;;;;;;;56.50;32.20;;;;;;;5.01;70.42;97546.61;108876;1251;109115;-73
2023/02/24 17:13:24;;;;;;;56.90;31.00;;;;;;;5.06;70.35;97544.27;108874;1251;101829;-74
2023/02/24 17:15:56;;;;;;;58.40;33.10;;;;;;;5.12;70.22;97548.61;108813;1251;107077;-72
2023/02/24 17:18:24;;;;;;;60.30;31.60;;;;;;;5.16;70.52;97537.71;108926;1251;94829;-75
2023/02/24 17:20:52;;;;;;;54.10;31.50;;;;;;;5.21;70.64;97532.63;108873;1252;94595;-75
2023/02/24 17:23:20;;;;;;;59.40;33.90;;;;;;;5.26;70.52;97533.02;108905;1252;107764;-75
2023/02/24 17:25:52;;;;;;;57.10;32.20;;;;;;;5.29;70.61;97528.55;108797;1251;102196;-74
2023/02/24 17:28:20;;;;;;;54.40;29.30;;;;;;;5.31;70.65;97524.65;108760;1254;107274;-74
2023/02/24 17:30:48;;;;;;;59.70;33.40;;;;;;;5.32;70.63;97517.72;108767;1254;94615;-75
2023/02/24 17:33:16;;;;;;;63.10;35.40;;;;;;;5.33;70.52;97513.95;108713;1254;94490;-74
2023/02/24 17:35:48;;;;;;;64.40;36.80;;;;;;;5.35;70.66;97516.79;108747;1254;109545;-74
2023/02/24 17:38:18;;;;;;;64.00;34.30;;;;;;;5.37;70.74;97515.27;108729;1251;102271;-74
2023/02/24 17:40:46;;;;;;;60.20;35.30;;;;;;;5.38;71.05;97510.84;108768;1256;107205;-74
2023/02/24 17:43:14;;;;;;;61.20;34.30;;;;;;;5.39;70.65;97509.35;108742;1255;94500;-71
2023/02/24 17:45:45;;;;;;;58.30;32.90;;;;;;;5.40;70.63;97504.18;108733;1253;94324;-74
2023/02/24 17:48:14;;;;;;;58.00;33.20;;;;;;;5.41;70.39;97495.84;108785;1251;110149;-75
2023/02/24 17:50:44;;;;;;;61.70;33.30;;;;;;;5.42;70.62;97494.71;108833;1253;102041;-74
2023/02/24 17:53:12;;;;;;;56.60;32.00;;;;;;;5.43;70.79;97492.86;108766;1252;107762;-74
2023/02/24 17:55:40;;;;;;;61.80;32.70;;;;;;;5.43;70.89;97495.46;108732;1254;94321;-74
2023/02/24 17:58:28;;;;;;;59.50;31.20;;;;;;;5.44;70.69;97501.23;108801;1253;94334;-73
2023/02/24 18:00:56;;;;;;;56.70;31.50;;;;;;;5.43;70.87;97497.42;108822;1252;109844;-73
2023/02/24 18:03:23;;;;;;;58.20;33.30;;;;;;;5.40;70.52;97500.08;108783;1253;102337;-75
2023/02/24 18:06:11;;;;;;;56.10;32.00;;;;;;;5.38;70.94;97495.70;108850;1251;105943;-75
2023/02/24 18:08:40;;;;;;;55.60;30.10;;;;;;;5.38;71.22;97495.32;108859;1254;94718;-75
2023/02/24 18:11:12;;;;;;;54.30;29.00;;;;;;;5.39;70.88;97491.38;108956;1251;94559;-74
2023/02/24 18:13:40;;;;;;;58.90;33.40;;;;;;;5.41;71.07;97492.27;108908;1254;109370;-74
2023/02/24 18:16:09;;;;;;;56.50;30.80;;;;;;;5.43;71.16;97490.73;108888;1254;102444;-76
2023/02/24 18:18:38;;;;;;;60.40;32.50;;;;;;;5.47;71.28;97489.20;108908;1251;107386;-75
2023/02/24 18:21:07;;;;;;;59.10;33.10;;;;;;;5.49;71.33;97491.13;108913;1251;94190;-75
2023/02/24 18:23:38;;;;;;;60.50;34.30;;;;;;;5.51;71.31;97494.88;108911;1251;94358;-75
2023/02/24 18:26:08;;;;;;;52.70;28.50;;;;;;;5.52;71.50;97499.03;108822;1251;110015;-70
2023/02/24 18:28:37;;;;;;;61.00;35.90;;;;;;;5.52;71.37;97502.15;108849;1254;102067;-75
2023/02/24 18:31:17;;;;;;;61.30;34.00;;;;;;;5.55;71.57;97495.15;108897;1254;107562;-75
2023/02/24 18:33:45;;;;;;;54.40;31.10;;;;;;;5.55;71.30;97493.33;108904;1252;94197;-74
2023/02/24 18:36:14;;;;;;;57.80;32.40;;;;;;;5.54;71.34;97481.26;108895;1254;94231;-75
2023/02/24 18:38:42;;;;;;;59.30;33.70;;;;;;;5.48;71.18;97466.77;108930;1251;109862;-72
2023/02/24 18:41:18;;;;;;;51.40;27.80;;;;;;;5.41;71.57;97457.45;108949;1251;101609;-74
2023/02/24 18:43:48;;;;;;;51.40;28.60;;;;;;;5.35;71.44;97462.85;108743;1253;107587;-73
2023/02/24 18:46:17;;;;;;;54.30;30.90;;;;;;;5.28;71.51;97459.34;108906;1252;94274;-74
2023/02/24 18:48:46;;;;;;;58.80;33.00;;;;;;;5.23;71.79;97460.27;108806;1253;94680;-75
2023/02/24 18:51:17;;;;;;;56.50;31.90;;;;;;;5.19;71.46;97459.30;108956;1251;109911;-70
2023/02/24 18:53:45;;;;;;;58.80;32.70;;;;;;;5.19;72.04;97454.21;108898;1251;100577;-75
2023/02/24 18:56:15;;;;;;;54.80;30.50;;;;;;;5.24;71.80;97451.79;108896;1253;107986;-75
2023/02/24 18:58:44;;;;;;;60.90;32.80;;;;;;;5.28;71.78;97440.24;108859;1251;94260;-75
2023/02/24 19:01:19;;;;;;;55.10;29.40;;;;;;;5.32;71.78;97438.82;108945;1251;94301;-76
2023/02/24 19:03:49;;;;;;;56.20;29.30;;;;;;;5.37;71.81;97443.88;108918;1251;109962;-75
2023/02/24 19:06:19;;;;;;;56.90;30.50;;;;;;;5.41;71.88;97445.33;108838;1251;102439;-75
2023/02/24 19:08:53;;;;;;;55.20;29.90;;;;;;;5.45;72.05;97442.08;108873;1253;107697;-74
2023/02/24 19:11:21;;;;;;;58.10;31.90;;;;;;;5.48;72.13;97441.14;108830;1252;94245;-74
2023/02/24 19:13:49;;;;;;;54.70;30.60;;;;;;;5.52;71.88;97449.61;108901;1254;94592;-75
2023/02/24 19:16:17;;;;;;;56.70;31.80;;;;;;;5.55;72.05;97444.61;108848;1251;109859;-69
2023/02/24 19:18:50;;;;;;;57.30;31.20;;;;;;;5.57;72.32;97444.27;108899;1251;101828;-75
2023/02/24 19:21:18;;;;;;;56.10;31.90;;;;;;;5.60;72.19;97443.17;108836;1256;107728;-74
2023/02/24 19:23:46;;;;;;;56.80;31.50;;;;;;;5.62;72.26;97446.67;108722;1254;94245;-74
2023/02/24 19:26:20;;;;;;;58.00;30.80;;;;;;;5.64;72.06;97446.02;108802;1256;94440;-74
2023/02/24 19:28:49;;;;;;;51.40;27.90;;;;;;;5.66;71.95;97446.60;108814;1252;110299;-70
2023/02/24 19:31:21;;;;;;;54.40;29.40;;;;;;;5.68;72.61;97428.19;108845;1252;102215;-75
2023/02/24 19:33:54;;;;;;;54.10;29.00;;;;;;;5.69;72.15;97412.98;108693;1253;107620;-77
2023/02/24 19:36:22;;;;;;;54.00;28.30;;;;;;;5.68;72.41;97419.91;108731;1256;94467;-76
2023/02/24 19:38:52;;;;;;;57.30;31.00;;;;;;;5.66;72.54;97413.54;108783;1257;94562;-77
2023/02/24 19:41:20;;;;;;;50.10;27.00;;;;;;;5.64;72.31;97411.39;108777;1254;109095;-76
2023/02/24 19:43:48;;;;;;;51.40;27.50;;;;;;;5.61;72.23;97402.65;108843;1254;101848;-77
2023/02/24 19:46:17;;;;;;;56.00;30.80;;;;;;;5.57;72.43;97400.48;108798;1254;108762;-77
2023/02/24 19:48:46;;;;;;;49.40;28.70;;;;;;;5.53;72.36;97399.94;108720;1254;94545;-75
2023/02/24 19:51:20;;;;;;;49.90;28.10;;;;;;;5.48;72.06;97392.90;108742;1254;94426;-77
2023/02/24 19:53:54;;;;;;;52.70;28.80;;;;;;;5.41;72.13;97386.98;108700;1251;109792;-76
2023/02/24 19:56:24;;;;;;;46.50;26.30;;;;;;;5.33;72.09;97386.55;108740;1253;104146;-76
2023/02/24 19:58:57;;;;;;;56.60;32.50;;;;;;;5.26;71.94;97390.05;108671;1254;107350;-76
2023/02/24 20:01:27;;;;;;;55.10;31.60;;;;;;;5.21;72.19;97391.31;108717;1256;95347;-76
2023/02/24 20:04:00;;;;;;;52.40;31.10;;;;;;;5.18;72.52;97387.34;108824;1251;94572;-77
2023/02/24 20:06:31;;;;;;;52.30;28.70;;;;;;;5.19;72.44;97383.80;108919;1252;109806;-71
2023/02/24 20:09:01;;;;;;;52.90;29.40;;;;;;;5.19;72.64;97384.98;108911;1254;102056;-76
2023/02/24 20:11:33;;;;;;;53.20;30.20;;;;;;;5.24;72.53;97377.92;108811;1251;107594;-76
2023/02/24 20:14:01;;;;;;;53.20;29.50;;;;;;;5.29;72.46;97379.10;108669;1254;157085;-74
2023/02/24 20:16:33;;;;;;;56.30;32.50;;;;;;;5.34;72.62;97375.04;108791;1251;94340;-75
2023/02/24 20:19:02;;;;;;;57.90;31.10;;;;;;;5.40;72.45;97368.27;108835;1251;109891;-71
2023/02/24 20:21:31;;;;;;;51.70;29.70;;;;;;;5.43;72.69;97366.77;108833;1254;101900;-72